createdAt,value
2022-12-05T00:02:24.698Z,100838.27
2022-12-05T00:04:51.767Z,100846.30
2022-12-05T00:07:18.621Z,100849.05
2022-12-05T00:09:46.662Z,100849.59
2022-12-05T00:12:28.599Z,100850.11
2022-12-05T00:14:56.720Z,100854.36
2022-12-05T00:17:27.897Z,100858.39
2022-12-05T00:19:56.886Z,100858.35
2022-12-05T00:22:26.327Z,100861.79
2022-12-05T00:24:53.338Z,100867.48
2022-12-05T00:27:26.201Z,100868.16
2022-12-05T00:30:04.043Z,100868.03
2022-12-05T00:32:34.224Z,100868.80
2022-12-05T00:35:04.033Z,100871.94
2022-12-05T00:37:32.539Z,100873.88
2022-12-05T00:40:12.209Z,100872.61
2022-12-05T00:42:39.327Z,100873.75
2022-12-05T00:45:09.075Z,100873.94
2022-12-05T00:47:40.156Z,100877.11
2022-12-05T00:50:11.625Z,100872.71
2022-12-05T00:53:10.111Z,100877.17
2022-12-05T00:55:39.220Z,100879.17
2022-12-05T00:58:11.319Z,100878.49
2022-12-05T01:00:39.474Z,100881.11
2022-12-05T01:03:08.942Z,100878.20
2022-12-05T01:05:47.211Z,100875.27
2022-12-05T01:08:14.270Z,100881.08
2022-12-05T01:10:41.217Z,100879.79
2022-12-05T01:13:22.982Z,100876.69
2022-12-05T01:15:55.417Z,100874.75
2022-12-05T01:18:27.452Z,100872.71
2022-12-05T01:20:56.835Z,100868.90
2022-12-05T01:23:24.268Z,100867.60
2022-12-05T01:26:14.202Z,100870.67
2022-12-05T01:28:41.591Z,100869.02
2022-12-05T01:31:34.382Z,100863.69
2022-12-05T01:34:08.614Z,100864.27
2022-12-05T01:36:38.852Z,100864.55
2022-12-05T01:39:07.488Z,100861.02
2022-12-05T01:41:41.963Z,100862.54
2022-12-05T01:44:14.865Z,100862.33
2022-12-05T01:46:48.683Z,100864.66
2022-12-05T01:49:23.577Z,100869.15
2022-12-05T01:51:57.134Z,100868.92
2022-12-05T01:54:25.660Z,100867.05
2022-12-05T01:57:00.503Z,100863.11
2022-12-05T01:59:33.808Z,100870.38
2022-12-05T02:02:01.170Z,100873.09
2022-12-05T02:04:28.396Z,100869.29
2022-12-05T02:06:55.832Z,100870.48
2022-12-05T02:09:26.191Z,100862.08
2022-12-05T02:12:01.777Z,100851.27
2022-12-05T02:14:46.678Z,100850.41
2022-12-05T02:17:22.336Z,100853.77
2022-12-05T02:20:16.996Z,100854.48
2022-12-05T02:23:14.661Z,100860.14
2022-12-05T02:25:50.651Z,100862.42
2022-12-05T02:28:42.054Z,100863.05
2022-12-05T02:31:37.166Z,100867.48
2022-12-05T02:34:38.521Z,100867.14
2022-12-05T02:37:38.689Z,100866.09
2022-12-05T02:40:38.736Z,100863.27
2022-12-05T02:43:31.756Z,100859.62
2022-12-05T02:46:03.773Z,100859.02
2022-12-05T02:48:33.806Z,100868.90
2022-12-05T02:51:03.251Z,100868.73
2022-12-05T02:53:32.573Z,100871.67
2022-12-05T02:56:00.739Z,100873.68
2022-12-05T02:58:33.669Z,100875.98
2022-12-05T03:01:00.987Z,100875.59
2022-12-05T03:03:31.588Z,100873.71
2022-12-05T03:06:13.024Z,100879.63
2022-12-05T03:08:49.185Z,100882.02
2022-12-05T03:11:16.196Z,100883.38
2022-12-05T03:13:50.908Z,100887.15
2022-12-05T03:16:23.724Z,100888.80
2022-12-05T03:18:56.378Z,100886.64
2022-12-05T03:21:26.186Z,100881.30
2022-12-05T03:23:57.656Z,100879.11
2022-12-05T03:26:31.440Z,100875.30
2022-12-05T03:29:29.828Z,100874.55
2022-12-05T03:32:20.995Z,100873.44
2022-12-05T03:35:11.882Z,100872.55
2022-12-05T03:37:50.008Z,100869.89
2022-12-05T03:40:29.233Z,100869.11
2022-12-05T03:43:12.707Z,100869.56
2022-12-05T03:45:58.434Z,100872.52
2022-12-05T03:48:52.882Z,100871.38
2022-12-05T03:51:22.999Z,100879.10
2022-12-05T03:54:00.035Z,100883.40
2022-12-05T03:56:37.493Z,100886.86
2022-12-05T03:59:34.019Z,100886.19
2022-12-05T04:02:07.947Z,100883.17
2022-12-05T04:04:39.995Z,100888.64
2022-12-05T04:07:09.115Z,100888.15
2022-12-05T04:09:48.465Z,100887.12
2022-12-05T04:12:21.972Z,100887.95
2022-12-05T04:15:03.430Z,100884.70
2022-12-05T04:17:38.617Z,100881.31
2022-12-05T04:20:36.419Z,100884.56
2022-12-05T04:23:04.062Z,100885.86
2022-12-05T04:26:09.138Z,100883.89
2022-12-05T04:28:39.011Z,100887.09
2022-12-05T04:31:25.065Z,100885.79
2022-12-05T04:33:56.629Z,100886.44
2022-12-05T04:36:34.644Z,100886.40
2022-12-05T04:39:20.965Z,100888.50
2022-12-05T04:42:05.329Z,100891.05
2022-12-05T04:44:47.069Z,100888.35
2022-12-05T04:47:17.012Z,100887.07
2022-12-05T04:49:54.347Z,100886.73
2022-12-05T04:52:22.640Z,100889.65
2022-12-05T04:54:54.985Z,100888.33
2022-12-05T04:57:27.438Z,100889.06
2022-12-05T04:59:55.053Z,100890.04
2022-12-05T05:02:37.516Z,100893.59
2022-12-05T05:05:13.723Z,100898.31
2022-12-05T05:07:48.980Z,100898.76
2022-12-05T05:10:20.869Z,100900.15
2022-12-05T05:12:47.939Z,100901.14
2022-12-05T05:15:15.156Z,100898.64
2022-12-05T05:17:42.275Z,100895.53
2022-12-05T05:20:26.447Z,100899.38
2022-12-05T05:22:56.066Z,100901.27
2022-12-05T05:25:24.636Z,100898.98
2022-12-05T05:27:53.733Z,100893.91
2022-12-05T05:30:23.220Z,100891.59
2022-12-05T05:32:50.714Z,100893.27
2022-12-05T05:35:17.832Z,100894.27
2022-12-05T05:37:45.682Z,100896.98
2022-12-05T05:40:15.116Z,100900.02
2022-12-05T05:42:54.084Z,100900.38
2022-12-05T05:45:21.629Z,100906.73
2022-12-05T05:47:49.513Z,100907.52
2022-12-05T05:50:28.479Z,100903.00
2022-12-05T05:53:05.596Z,100904.92
2022-12-05T05:55:41.238Z,100900.34
2022-12-05T05:58:12.370Z,100898.50
2022-12-05T06:00:40.576Z,100900.64
2022-12-05T06:03:10.509Z,100900.81
2022-12-05T06:05:56.628Z,100899.96
2022-12-05T06:08:29.862Z,100899.25
2022-12-05T06:11:09.530Z,100899.30
2022-12-05T06:13:39.342Z,100898.02
2022-12-05T06:16:09.425Z,100897.88
2022-12-05T06:18:37.025Z,100899.98
2022-12-05T06:21:11.798Z,100899.20
2022-12-05T06:23:43.157Z,100900.89
2022-12-05T06:26:25.029Z,100905.36
2022-12-05T06:28:59.670Z,100910.04
2022-12-05T06:31:30.959Z,100909.05
2022-12-05T06:34:03.314Z,100914.95
2022-12-05T06:36:33.029Z,100918.13
2022-12-05T06:38:59.961Z,100919.77
2022-12-05T06:41:28.123Z,100916.90
2022-12-05T06:44:01.639Z,100918.13
2022-12-05T06:46:29.542Z,100918.94
2022-12-05T06:49:00.325Z,100922.75
2022-12-05T06:51:27.474Z,100924.79
2022-12-05T06:54:13.261Z,100922.89
2022-12-05T06:56:44.927Z,100925.63
2022-12-05T06:59:24.534Z,100925.30
2022-12-05T07:01:51.899Z,100922.53
2022-12-05T07:04:23.889Z,100924.84
2022-12-05T07:06:54.111Z,100928.38
2022-12-05T07:09:44.953Z,100929.54
2022-12-05T07:12:38.978Z,100932.25
2022-12-05T07:15:19.241Z,100934.61
2022-12-05T07:17:52.544Z,100935.75
2022-12-05T07:20:43.120Z,100938.59
2022-12-05T07:23:42.350Z,100938.66
2022-12-05T07:26:30.806Z,100940.44
2022-12-05T07:29:36.384Z,100942.11
2022-12-05T07:32:17.214Z,100937.90
2022-12-05T07:35:07.885Z,100941.46
2022-12-05T07:38:25.983Z,100940.79
2022-12-05T07:40:55.995Z,100942.98
2022-12-05T07:43:33.908Z,100943.56
2022-12-05T07:46:06.526Z,100943.04
2022-12-05T07:49:05.045Z,100946.27
2022-12-05T07:58:01.797Z,100945.85
2022-12-05T08:00:43.584Z,100946.23
2022-12-05T08:03:12.229Z,100947.88
2022-12-05T08:06:05.763Z,100944.52
2022-12-05T08:08:33.245Z,100943.06
2022-12-05T08:11:05.844Z,100939.95
2022-12-05T08:13:37.098Z,100940.66
2022-12-05T08:16:10.391Z,100942.83
2022-12-05T08:18:49.767Z,100939.66
2022-12-05T08:21:24.842Z,100938.75
2022-12-05T08:23:53.076Z,100940.43
2022-12-05T08:26:24.137Z,100940.45
2022-12-05T08:28:59.235Z,100941.45
2022-12-05T08:31:32.149Z,100944.58
2022-12-05T08:34:00.052Z,100942.45
2022-12-05T08:36:29.553Z,100942.95
2022-12-05T08:39:09.153Z,100946.60
2022-12-05T08:41:38.356Z,100945.42
2022-12-05T08:44:08.976Z,100945.89
2022-12-05T08:46:46.495Z,100943.63
2022-12-05T08:50:13.174Z,100942.29
2022-12-05T08:52:39.914Z,100940.44
2022-12-05T08:55:22.067Z,100935.73
2022-12-05T08:58:19.566Z,100936.70
2022-12-05T09:00:59.846Z,100933.81
2022-12-05T09:06:27.948Z,100933.55
2022-12-05T09:09:12.433Z,100928.38
2022-12-05T09:12:15.784Z,100925.50
2022-12-05T09:14:47.462Z,100921.96
2022-12-05T09:17:16.362Z,100921.08
2022-12-05T09:20:20.515Z,100920.00
2022-12-05T09:22:49.051Z,100918.85
2022-12-05T09:25:21.964Z,100913.80
2022-12-05T09:27:59.850Z,100911.01
2022-12-05T09:30:28.978Z,100904.80
2022-12-05T09:35:56.041Z,100897.59
2022-12-05T09:38:35.393Z,100895.44
2022-12-05T09:41:30.184Z,100887.46
2022-12-05T09:44:36.628Z,100882.71
2022-12-05T09:47:42.617Z,100880.30
2022-12-05T09:50:43.840Z,100873.72
2022-12-05T09:53:10.844Z,100866.71
2022-12-05T09:56:00.519Z,100867.11
2022-12-05T09:58:43.863Z,100865.09
2022-12-05T10:03:31.470Z,100867.23
2022-12-05T10:05:08.275Z,100867.38
2022-12-05T10:07:48.980Z,100864.63
2022-12-05T10:10:29.708Z,100863.99
2022-12-05T10:13:25.669Z,100863.23
2022-12-05T10:15:57.543Z,100865.71
2022-12-05T10:18:53.936Z,100863.69
2022-12-05T10:21:31.183Z,100863.23
2022-12-05T10:24:16.388Z,100863.44
2022-12-05T10:26:55.197Z,100865.52
2022-12-05T10:29:44.815Z,100865.80
2022-12-05T10:32:28.159Z,100866.15
2022-12-05T10:35:21.875Z,100864.80
2022-12-05T10:38:31.046Z,100865.88
2022-12-05T10:41:18.295Z,100862.95
2022-12-05T10:43:48.697Z,100860.52
2022-12-05T10:46:17.452Z,100861.70
2022-12-05T10:48:46.896Z,100856.73
2022-12-05T10:51:17.542Z,100851.41
2022-12-05T10:53:50.584Z,100849.91
2022-12-05T10:56:43.785Z,100852.49
2022-12-05T10:59:15.712Z,100850.78
2022-12-05T11:01:58.002Z,100849.90
2022-12-05T11:04:47.124Z,100847.76
2022-12-05T11:07:30.216Z,100846.38
2022-12-05T11:10:03.652Z,100847.36
2022-12-05T11:12:35.947Z,100846.36
2022-12-05T11:15:04.905Z,100842.34
2022-12-05T11:20:45.338Z,100839.25
2022-12-05T11:23:58.453Z,100840.64
2022-12-05T11:26:45.757Z,100833.63
2022-12-05T11:30:14.925Z,100832.44
2022-12-05T11:32:51.439Z,100829.95
2022-12-05T11:35:25.951Z,100822.80
2022-12-05T11:37:59.850Z,100820.48
2022-12-05T11:40:38.592Z,100820.98
2022-12-05T11:43:28.492Z,100821.89
2022-12-05T11:46:28.882Z,100820.98
2022-12-05T11:49:26.841Z,100816.88
2022-12-05T11:52:30.527Z,100814.25
2022-12-05T11:55:16.168Z,100812.83
2022-12-05T11:58:02.538Z,100805.05
2022-12-05T12:00:51.683Z,100805.19
2022-12-05T12:03:43.100Z,100802.52
2022-12-05T12:06:32.161Z,100797.83
2022-12-05T12:09:25.908Z,100794.83
2022-12-05T12:12:22.153Z,100794.29
2022-12-05T12:15:42.300Z,100787.17
2022-12-05T12:18:30.932Z,100776.61
2022-12-05T12:21:15.970Z,100773.64
2022-12-05T12:24:04.509Z,100770.46
2022-12-05T12:27:35.142Z,100770.56
2022-12-05T12:30:24.209Z,100769.16
2022-12-05T12:33:36.398Z,100767.40
2022-12-05T12:36:37.754Z,100762.79
2022-12-05T12:39:28.459Z,100761.94
2022-12-05T12:42:15.688Z,100761.64
2022-12-05T12:44:55.297Z,100760.42
2022-12-05T12:47:28.334Z,100760.11
2022-12-05T12:50:17.803Z,100758.14
2022-12-05T12:52:56.406Z,100761.05
2022-12-05T12:55:26.525Z,100763.21
2022-12-05T12:58:27.967Z,100760.30
2022-12-05T13:02:16.913Z,100759.89
2022-12-05T13:04:49.455Z,100763.25
2022-12-05T13:07:26.647Z,100763.27
2022-12-05T13:10:35.310Z,100761.89
2022-12-05T13:13:52.024Z,100754.21
2022-12-05T13:16:45.743Z,100755.13
2022-12-05T13:19:30.031Z,100755.80
2022-12-05T13:22:06.485Z,100755.75
2022-12-05T13:24:49.502Z,100752.23
2022-12-05T13:27:32.440Z,100752.11
2022-12-05T13:30:05.258Z,100748.00
2022-12-05T13:33:20.961Z,100747.08
2022-12-05T13:37:00.659Z,100744.13
2022-12-05T13:40:11.042Z,100745.98
2022-12-05T13:42:38.565Z,100747.56
2022-12-05T13:45:18.730Z,100745.73
2022-12-05T13:47:55.603Z,100748.02
2022-12-05T13:50:51.148Z,100746.08
2022-12-05T13:53:39.300Z,100741.73
2022-12-05T13:56:29.951Z,100741.71
2022-12-05T14:00:07.385Z,100737.37
2022-12-05T14:03:08.126Z,100732.95
2022-12-05T14:06:01.872Z,100733.24
2022-12-05T14:08:31.906Z,100733.50
2022-12-05T14:11:13.941Z,100732.55
2022-12-05T14:13:50.980Z,100730.38
2022-12-05T14:16:26.690Z,100728.60
2022-12-05T14:19:15.059Z,100725.20
2022-12-05T14:22:08.494Z,100728.10
2022-12-05T14:25:09.082Z,100730.48
2022-12-05T14:28:17.110Z,100731.58
2022-12-05T14:32:11.221Z,100732.58
2022-12-05T14:34:47.153Z,100727.08
2022-12-05T14:37:37.434Z,100727.14
2022-12-05T14:40:54.238Z,100732.63
2022-12-05T14:47:40.749Z,100732.46
2022-12-05T14:47:47.355Z,100731.39
2022-12-05T14:50:02.946Z,100733.22
2022-12-05T14:53:23.009Z,100730.81
2022-12-05T14:56:00.120Z,100728.29
2022-12-05T14:58:39.305Z,100729.61
2022-12-05T15:01:14.395Z,100730.64
2022-12-05T15:04:00.646Z,100730.77
2022-12-05T15:06:28.343Z,100730.09
2022-12-05T15:09:35.089Z,100724.23
2022-12-05T15:12:09.782Z,100727.81
2022-12-05T15:15:08.922Z,100725.08
2022-12-05T15:17:44.106Z,100726.89
2022-12-05T15:20:29.481Z,100724.43
2022-12-05T15:22:59.634Z,100725.42
2022-12-05T15:25:33.359Z,100723.48
2022-12-05T15:28:17.285Z,100722.17
2022-12-05T15:30:55.309Z,100721.11
2022-12-05T15:33:25.935Z,100718.33
2022-12-05T15:35:55.258Z,100714.36
2022-12-05T15:38:32.156Z,100712.69
2022-12-05T15:41:01.471Z,100709.59
2022-12-05T15:43:33.925Z,100711.70
2022-12-05T15:46:28.280Z,100709.77
2022-12-05T15:48:57.580Z,100710.98
2022-12-05T15:51:36.433Z,100710.50
2022-12-05T15:54:17.713Z,100712.15
2022-12-05T15:56:59.687Z,100713.31
2022-12-05T15:59:42.761Z,100714.30
2022-12-05T16:02:22.524Z,100713.13
2022-12-05T16:04:56.209Z,100711.80
2022-12-05T16:07:26.717Z,100709.70
2022-12-05T16:09:59.204Z,100710.21
2022-12-05T16:12:38.894Z,100708.46
2022-12-05T16:15:14.555Z,100706.33
2022-12-05T16:17:55.939Z,100708.81
2022-12-05T16:20:36.543Z,100707.63
2022-12-05T16:23:27.097Z,100705.74
2022-12-05T16:26:10.406Z,100698.19
2022-12-05T16:28:39.642Z,100698.45
2022-12-05T16:31:07.094Z,100695.09
2022-12-05T16:33:40.177Z,100690.52
2022-12-05T16:36:12.397Z,100688.86
2022-12-05T16:38:44.476Z,100686.34
2022-12-05T16:41:23.258Z,100683.41
2022-12-05T16:44:26.962Z,100680.31
2022-12-05T16:47:11.937Z,100676.22
2022-12-05T16:49:57.326Z,100671.16
2022-12-05T16:52:32.778Z,100670.02
2022-12-05T16:55:06.378Z,100669.00
2022-12-05T16:57:42.516Z,100667.84
2022-12-05T17:00:20.533Z,100674.13
2022-12-05T17:02:52.869Z,100671.69
2022-12-05T17:05:22.302Z,100665.43
2022-12-05T17:07:49.719Z,100669.75
2022-12-05T17:10:17.438Z,100673.06
2022-12-05T17:12:47.842Z,100670.64
2022-12-05T17:15:19.518Z,100673.31
2022-12-05T17:17:46.676Z,100675.48
2022-12-05T17:20:16.095Z,100674.73
2022-12-05T17:22:49.728Z,100676.74
2022-12-05T17:25:36.608Z,100676.49
2022-12-05T17:28:03.861Z,100674.37
2022-12-05T17:30:33.730Z,100679.41
2022-12-05T17:33:01.327Z,100679.71
2022-12-05T17:35:31.799Z,100679.42
2022-12-05T17:38:03.850Z,100677.34
2022-12-05T17:40:34.659Z,100679.95
2022-12-05T17:43:12.731Z,100675.84
2022-12-05T17:45:46.907Z,100671.00
2022-12-05T17:48:20.610Z,100671.42
2022-12-05T17:50:49.504Z,100665.45
2022-12-05T17:53:20.023Z,100661.98
2022-12-05T17:55:52.820Z,100659.70
2022-12-05T18:01:25.569Z,100658.32
2022-12-05T18:03:55.997Z,100656.77
2022-12-05T18:04:53.546Z,100658.84
2022-12-05T18:06:23.040Z,100656.89
2022-12-05T18:09:03.862Z,100657.17
2022-12-05T18:11:37.577Z,100659.43
2022-12-05T18:14:12.454Z,100660.66
2022-12-05T18:16:55.096Z,100664.09
2022-12-05T18:19:26.188Z,100663.23
2022-12-05T18:21:57.009Z,100663.15
2022-12-05T18:24:31.768Z,100660.23
2022-12-05T18:27:11.475Z,100659.04
2022-12-05T18:29:40.166Z,100659.13
2022-12-05T18:32:15.698Z,100656.04
2022-12-05T18:35:43.407Z,100657.17
2022-12-05T18:38:15.496Z,100654.56
2022-12-05T18:40:51.959Z,100650.75
2022-12-05T18:43:20.134Z,100649.36
2022-12-05T18:46:12.945Z,100651.77
2022-12-05T18:49:01.714Z,100653.66
2022-12-05T18:51:30.921Z,100653.35
2022-12-05T18:54:02.404Z,100646.54
2022-12-05T18:59:52.207Z,100627.32
2022-12-05T19:02:27.252Z,100628.09
2022-12-05T19:05:01.846Z,100623.05
2022-12-05T19:07:31.170Z,100622.05
2022-12-05T19:10:11.119Z,100623.29
2022-12-05T19:12:49.491Z,100620.31
2022-12-05T19:15:20.649Z,100622.52
2022-12-05T19:17:52.649Z,100624.19
2022-12-05T19:20:29.926Z,100626.10
2022-12-05T19:23:00.836Z,100632.48
2022-12-05T19:25:30.606Z,100629.45
2022-12-05T19:28:08.686Z,100630.83
2022-12-05T19:31:21.476Z,100632.23
2022-12-05T19:33:53.805Z,100632.75
2022-12-05T19:36:51.252Z,100631.73
2022-12-05T19:39:23.565Z,100626.94
2022-12-05T19:42:22.651Z,100624.99
2022-12-05T19:44:54.456Z,100621.77
2022-12-05T19:47:37.597Z,100617.77
2022-12-05T19:50:15.095Z,100619.02
2022-12-05T19:53:16.043Z,100617.11
2022-12-05T19:55:46.436Z,100614.54
2022-12-05T19:58:27.688Z,100613.80
2022-12-05T20:00:57.529Z,100615.30
2022-12-05T20:03:27.010Z,100616.48
2022-12-05T20:05:59.737Z,100614.90
2022-12-05T20:08:26.921Z,100612.34
2022-12-05T20:10:54.067Z,100616.27
2022-12-05T20:13:46.541Z,100619.56
2022-12-05T20:16:33.485Z,100617.42
2022-12-05T20:19:30.535Z,100620.80
2022-12-05T20:22:30.512Z,100620.77
2022-12-05T20:24:57.868Z,100618.79
2022-12-05T20:27:24.914Z,100612.73
2022-12-05T20:29:52.217Z,100617.20
2022-12-05T20:32:53.890Z,100618.20
2022-12-05T20:35:24.335Z,100615.68
2022-12-05T20:38:25.309Z,100617.50
2022-12-05T20:41:15.013Z,100616.88
2022-12-05T20:44:36.831Z,100611.73
2022-12-05T20:47:22.871Z,100606.61
2022-12-05T20:54:06.746Z,100610.11
2022-12-05T20:56:35.249Z,100609.42
2022-12-05T20:59:05.532Z,100613.08
2022-12-05T21:01:35.125Z,100608.05
2022-12-05T21:04:05.311Z,100605.02
2022-12-05T21:06:35.830Z,100604.64
2022-12-05T21:09:05.898Z,100605.14
2022-12-05T21:11:34.808Z,100606.36
2022-12-05T21:14:09.396Z,100606.08
2022-12-05T21:16:47.207Z,100605.83
2022-12-05T21:19:14.835Z,100601.42
2022-12-05T21:21:41.928Z,100600.73
2022-12-05T21:24:14.735Z,100593.00
2022-12-05T21:26:54.145Z,100586.48
2022-12-05T21:29:24.684Z,100583.36
2022-12-05T21:32:13.375Z,100579.60
2022-12-05T21:34:55.058Z,100573.73
2022-12-05T21:37:27.629Z,100565.40
2022-12-05T21:39:54.884Z,100560.92
2022-12-05T21:42:21.916Z,100558.34
2022-12-05T21:44:54.951Z,100557.79
2022-12-05T21:47:48.025Z,100557.00
2022-12-05T21:50:34.581Z,100554.09
2022-12-05T21:53:09.163Z,100548.14
2022-12-05T21:56:33.446Z,100546.89
2022-12-05T21:59:33.621Z,100548.88
2022-12-05T22:02:14.786Z,100543.62
2022-12-05T22:04:43.803Z,100540.09
2022-12-05T22:07:10.818Z,100535.68
2022-12-05T22:09:37.744Z,100532.27
2022-12-05T22:12:05.076Z,100531.00
2022-12-05T22:14:32.135Z,100534.30
2022-12-05T22:17:19.356Z,100531.90
2022-12-05T22:20:12.881Z,100535.34
2022-12-05T22:22:43.056Z,100537.93
2022-12-05T22:25:10.111Z,100536.94
2022-12-05T22:27:37.670Z,100536.04
2022-12-05T22:30:05.362Z,100533.29
2022-12-05T22:32:33.055Z,100526.34
2022-12-05T22:35:03.715Z,100525.94
2022-12-05T22:37:31.445Z,100525.84
2022-12-05T22:40:01.224Z,100522.54
2022-12-05T22:42:31.290Z,100519.14
2022-12-05T22:44:58.063Z,100511.83
2022-12-05T22:47:24.883Z,100509.02
2022-12-05T22:49:51.644Z,100507.97
2022-12-05T22:52:22.190Z,100505.80
2022-12-05T22:54:51.492Z,100506.34
2022-12-05T22:57:18.906Z,100505.34
2022-12-05T22:59:51.337Z,100505.30
2022-12-05T23:02:21.228Z,100501.16
2022-12-05T23:04:50.427Z,100498.13
2022-12-05T23:08:09.979Z,100491.22
2022-12-05T23:10:20.829Z,100484.31
2022-12-05T23:12:47.772Z,100480.52
2022-12-05T23:15:14.725Z,100484.71
2022-12-05T23:17:49.643Z,100485.79
2022-12-05T23:20:16.763Z,100486.98
2022-12-05T23:22:43.546Z,100486.04
2022-12-05T23:25:10.302Z,100486.05
2022-12-05T23:27:40.437Z,100485.20
2022-12-05T23:30:12.274Z,100484.06
2022-12-05T23:32:39.048Z,100481.89
2022-12-05T23:35:16.626Z,100479.08
2022-12-05T23:37:48.144Z,100480.83
2022-12-05T23:40:16.158Z,100480.23
2022-12-05T23:42:43.164Z,100475.86
2022-12-05T23:45:10.684Z,100472.19
2022-12-05T23:47:47.340Z,100469.27
2022-12-05T23:50:35.532Z,100464.98
2022-12-05T23:53:02.358Z,100464.30
2022-12-05T23:55:55.153Z,100461.64
2022-12-05T23:58:22.136Z,100460.04
